createdAt,value
2023-12-09T00:00:42.764Z,98768.34
2023-12-09T00:03:10.351Z,98762.44
2023-12-09T00:05:37.408Z,98768.13
2023-12-09T00:08:04.354Z,98768.75
2023-12-09T00:10:31.131Z,98764.19
2023-12-09T00:12:57.911Z,98751.94
2023-12-09T00:15:24.714Z,98763.34
2023-12-09T00:17:52.679Z,98765.44
2023-12-09T00:20:19.542Z,98767.22
2023-12-09T00:22:46.247Z,98767.72
2023-12-09T00:25:12.965Z,98768.47
2023-12-09T00:27:39.998Z,98774.47
2023-12-09T00:30:09.023Z,98772.44
2023-12-09T00:32:36.036Z,98763.69
2023-12-09T00:35:03.313Z,98767.25
2023-12-09T00:37:30.808Z,98774.38
2023-12-09T00:39:57.836Z,98774.38
2023-12-09T00:42:24.786Z,98777.66
2023-12-09T00:44:51.864Z,98782.66
2023-12-09T00:47:18.824Z,98777.56
2023-12-09T00:49:45.737Z,98780.16
2023-12-09T00:52:13.090Z,98784.94
2023-12-09T00:54:39.796Z,98781.22
2023-12-09T00:57:06.802Z,98779.56
2023-12-09T00:59:34.029Z,98785.03
2023-12-09T01:02:00.825Z,98792.53
2023-12-09T01:04:27.712Z,98792.72
2023-12-09T01:06:54.459Z,98782.34
2023-12-09T01:09:21.297Z,98788.59
2023-12-09T01:11:48.177Z,98789.94
2023-12-09T01:14:14.923Z,98797.09
2023-12-09T01:16:42.295Z,98801.38
2023-12-09T01:19:09.326Z,98801.03
2023-12-09T01:21:36.703Z,98798.44
2023-12-09T01:24:04.570Z,98805.53
2023-12-09T01:26:32.051Z,98807.16
2023-12-09T01:29:01.068Z,98806.22
2023-12-09T01:31:27.741Z,98811.09
2023-12-09T01:33:54.621Z,98811.41
2023-12-09T01:36:21.480Z,98821.59
2023-12-09T01:38:48.239Z,98818.25
2023-12-09T01:41:14.921Z,98817.53
2023-12-09T01:43:41.726Z,98824.38
2023-12-09T01:46:12.004Z,98824.91
2023-12-09T01:48:39.220Z,98821.97
2023-12-09T01:51:06.632Z,98821.25
2023-12-09T01:53:33.421Z,98822.31
2023-12-09T01:56:01.204Z,98828.66
2023-12-09T01:58:28.026Z,98825.00
2023-12-09T02:00:55.263Z,98816.06
2023-12-09T02:03:22.247Z,98818.47
2023-12-09T02:05:49.031Z,98825.22
2023-12-09T02:08:16.402Z,98824.56
2023-12-09T02:10:43.956Z,98814.72
2023-12-09T02:13:19.986Z,98815.16
2023-12-09T02:15:54.287Z,98809.25
2023-12-09T02:18:21.087Z,98818.56
2023-12-09T02:20:47.817Z,98818.47
2023-12-09T02:23:14.702Z,98819.19
2023-12-09T02:25:42.068Z,98816.69
2023-12-09T02:28:28.838Z,98817.13
2023-12-09T02:31:06.938Z,98817.13
2023-12-09T02:33:34.827Z,98806.94
2023-12-09T02:36:03.091Z,98796.97
2023-12-09T02:38:31.367Z,98807.47
2023-12-09T02:40:58.635Z,98808.63
2023-12-09T02:43:25.371Z,98809.34
2023-12-09T02:45:52.106Z,98808.00
2023-12-09T02:48:18.995Z,98809.88
2023-12-09T02:50:45.892Z,98798.47
2023-12-09T02:53:13.017Z,98804.09
2023-12-09T02:55:39.709Z,98802.13
2023-12-09T02:58:06.429Z,98793.28
2023-12-09T03:00:33.240Z,98785.81
2023-12-09T03:03:00.099Z,98780.81
2023-12-09T03:05:27.297Z,98784.13
2023-12-09T03:07:54.080Z,98761.19
2023-12-09T03:10:21.159Z,98768.81
2023-12-09T03:12:47.949Z,98775.44
2023-12-09T03:15:14.894Z,98766.41
2023-12-09T03:17:42.801Z,98758.00
2023-12-09T03:20:10.588Z,98752.19
2023-12-09T03:22:37.430Z,98753.63
2023-12-09T03:25:04.661Z,98753.41
2023-12-09T03:27:31.405Z,98761.81
2023-12-09T03:29:58.183Z,98737.03
2023-12-09T03:35:53.193Z,98741.72
2023-12-09T03:38:19.936Z,98729.03
2023-12-09T03:40:46.895Z,98728.00
2023-12-09T03:43:13.649Z,98729.13
2023-12-09T03:45:42.437Z,98727.28
2023-12-09T03:48:09.216Z,98733.94
2023-12-09T03:50:35.974Z,98727.06
2023-12-09T03:53:02.652Z,98728.94
2023-12-09T03:55:29.609Z,98742.63
2023-12-09T03:57:57.360Z,98744.97
2023-12-09T04:00:24.199Z,98746.00
2023-12-09T04:02:50.963Z,98746.09
2023-12-09T04:05:17.864Z,98742.25
2023-12-09T04:07:44.691Z,98742.25
2023-12-09T04:10:11.519Z,98739.78
2023-12-09T04:12:39.692Z,98730.81
2023-12-09T04:15:07.274Z,98734.34
2023-12-09T04:17:34.101Z,98729.38
2023-12-09T04:20:01.462Z,98730.81
2023-12-09T04:22:28.511Z,98727.94
2023-12-09T04:24:55.799Z,98717.72
2023-12-09T04:27:22.591Z,98723.75
2023-12-09T04:29:50.698Z,98719.81
2023-12-09T04:32:17.506Z,98720.88
2023-12-09T04:34:44.170Z,98711.75
2023-12-09T04:37:10.843Z,98722.00
2023-12-09T04:39:37.665Z,98722.22
2023-12-09T04:42:05.641Z,98724.50
2023-12-09T04:44:32.406Z,98723.97
2023-12-09T04:46:59.224Z,98718.25
2023-12-09T04:49:27.608Z,98712.16
2023-12-09T04:51:54.308Z,98715.78
2023-12-09T04:54:21.086Z,98704.50
2023-12-09T04:56:47.811Z,98700.34
2023-12-09T04:59:15.363Z,98700.22
2023-12-09T05:01:42.802Z,98700.13
2023-12-09T05:04:12.853Z,98706.84
2023-12-09T05:06:39.737Z,98696.91
2023-12-09T05:09:06.693Z,98695.97
2023-12-09T05:11:35.834Z,98696.06
2023-12-09T05:14:02.631Z,98698.78
2023-12-09T05:16:29.525Z,98691.00
2023-12-09T05:18:56.344Z,98690.06
2023-12-09T05:21:23.274Z,98686.31
2023-12-09T05:24:02.068Z,98685.41
2023-12-09T05:26:30.253Z,98678.94
2023-12-09T05:28:57.754Z,98677.53
2023-12-09T05:31:25.158Z,98671.81
2023-12-09T05:33:52.408Z,98686.00
2023-12-09T05:36:19.553Z,98692.66
2023-12-09T05:38:46.455Z,98701.78
2023-12-09T05:41:13.166Z,98696.91
2023-12-09T05:43:40.566Z,98698.56
2023-12-09T05:46:07.750Z,98700.97
2023-12-09T05:48:37.586Z,98701.25
2023-12-09T05:51:04.874Z,98701.88
2023-12-09T05:53:32.599Z,98698.97
2023-12-09T05:55:59.308Z,98698.38
2023-12-09T05:58:26.068Z,98702.63
2023-12-09T06:00:53.194Z,98683.31
2023-12-09T06:03:20.016Z,98700.22
2023-12-09T06:05:46.760Z,98706.53
2023-12-09T06:08:13.614Z,98694.00
2023-12-09T06:10:40.298Z,98694.00
2023-12-09T06:13:06.962Z,98697.09
2023-12-09T06:15:33.763Z,98689.31
2023-12-09T06:18:00.649Z,98692.84
2023-12-09T06:20:27.365Z,98683.63
2023-12-09T06:22:54.085Z,98680.81
2023-12-09T06:25:21.052Z,98683.94
2023-12-09T06:27:48.213Z,98678.75
2023-12-09T06:30:15.379Z,98676.66
2023-12-09T06:32:43.568Z,98677.19
2023-12-09T06:35:10.667Z,98672.94
2023-12-09T06:37:37.471Z,98669.41
2023-12-09T06:40:05.404Z,98664.31
2023-12-09T06:42:32.277Z,98666.81
2023-12-09T06:44:59.431Z,98668.03
2023-12-09T06:47:26.242Z,98682.16
2023-12-09T06:49:53.116Z,98683.84
2023-12-09T06:52:21.036Z,98693.28
2023-12-09T06:54:47.842Z,98688.69
2023-12-09T06:57:14.694Z,98692.00
2023-12-09T06:59:42.153Z,98695.97
2023-12-09T07:02:08.948Z,98685.59
2023-12-09T07:04:39.370Z,98692.66
2023-12-09T07:07:09.899Z,98688.41
2023-12-09T07:09:38.376Z,98688.09
2023-12-09T07:12:05.741Z,98689.75
2023-12-09T07:14:32.594Z,98682.81
2023-12-09T07:16:59.284Z,98689.13
2023-12-09T07:19:26.092Z,98677.72
2023-12-09T07:21:54.089Z,98681.75
2023-12-09T07:24:20.792Z,98676.75
2023-12-09T07:26:47.753Z,98672.09
2023-12-09T07:29:14.513Z,98664.50
2023-12-09T07:31:41.374Z,98668.38
2023-12-09T07:34:08.307Z,98666.28
2023-12-09T07:36:35.127Z,98664.41
2023-12-09T07:39:01.940Z,98655.91
2023-12-09T07:41:28.699Z,98653.09
2023-12-09T07:43:55.596Z,98655.50
2023-12-09T07:46:22.283Z,98654.69
2023-12-09T07:48:49.267Z,98655.72
2023-12-09T07:51:16.231Z,98646.16
2023-12-09T07:53:42.988Z,98658.00
2023-12-09T07:56:10.220Z,98656.84
2023-12-09T07:58:37.651Z,98656.94
2023-12-09T08:01:07.426Z,98659.44
2023-12-09T08:03:36.390Z,98658.41
2023-12-09T08:06:04.078Z,98650.50
2023-12-09T08:08:31.045Z,98652.19
2023-12-09T08:10:57.927Z,98645.44
2023-12-09T08:13:24.653Z,98652.06
2023-12-09T08:15:51.388Z,98652.06
2023-12-09T08:18:18.160Z,98646.75
2023-12-09T08:20:45.002Z,98648.50
2023-12-09T08:23:12.464Z,98645.50
2023-12-09T08:25:39.900Z,98637.84
2023-12-09T08:28:07.290Z,98648.22
2023-12-09T08:30:34.161Z,98631.50
2023-12-09T08:33:00.906Z,98649.34
2023-12-09T08:35:27.766Z,98646.72
2023-12-09T08:37:54.584Z,98633.41
2023-12-09T08:40:21.278Z,98640.06
2023-12-09T08:42:48.084Z,98638.00
2023-12-09T08:45:17.072Z,98631.66
2023-12-09T08:47:45.696Z,98624.06
2023-12-09T08:50:22.489Z,98625.19
2023-12-09T08:52:53.592Z,98617.53
2023-12-09T08:55:20.565Z,98620.75
2023-12-09T08:57:47.579Z,98621.47
2023-12-09T09:00:17.458Z,98607.44
2023-12-09T09:02:44.215Z,98599.94
2023-12-09T09:05:11.700Z,98604.59
2023-12-09T09:07:41.700Z,98611.81
2023-12-09T09:10:09.516Z,98605.66
2023-12-09T09:12:36.384Z,98601.59
2023-12-09T09:15:05.984Z,98600.34
2023-12-09T09:17:36.619Z,98592.28
2023-12-09T09:20:04.852Z,98596.50
2023-12-09T09:22:31.696Z,98581.69
2023-12-09T09:24:59.680Z,98582.59
2023-12-09T09:27:27.109Z,98578.94
2023-12-09T09:29:54.661Z,98578.84
2023-12-09T09:32:22.789Z,98572.84
2023-12-09T09:34:50.051Z,98570.00
2023-12-09T09:37:17.112Z,98569.34
2023-12-09T09:39:44.084Z,98569.09
2023-12-09T09:42:39.217Z,98565.34
2023-12-09T09:45:14.261Z,98564.91
2023-12-09T09:47:42.816Z,98564.41
2023-12-09T09:50:11.636Z,98559.84
2023-12-09T09:52:42.077Z,98552.84
2023-12-09T09:55:09.411Z,98544.13
2023-12-09T09:57:36.581Z,98535.28
2023-12-09T10:00:07.866Z,98540.16
2023-12-09T10:02:37.101Z,98535.66
2023-12-09T10:05:04.724Z,98533.91
2023-12-09T10:07:31.931Z,98533.91
2023-12-09T10:09:59.409Z,98534.50
2023-12-09T10:12:28.232Z,98522.69
2023-12-09T10:14:55.242Z,98520.34
2023-12-09T10:17:22.360Z,98515.00
2023-12-09T10:19:49.267Z,98508.88
2023-12-09T10:22:16.350Z,98517.88
2023-12-09T10:24:51.356Z,98493.06
2023-12-09T10:27:23.660Z,98504.88
2023-12-09T10:29:51.360Z,98498.53
2023-12-09T10:32:18.341Z,98490.84
2023-12-09T10:34:45.127Z,98486.22
2023-12-09T10:37:13.770Z,98482.47
2023-12-09T10:39:51.264Z,98475.63
2023-12-09T10:42:18.199Z,98475.25
2023-12-09T10:44:44.975Z,98471.00
2023-12-09T10:47:11.692Z,98462.94
2023-12-09T10:49:38.752Z,98464.97
2023-12-09T10:52:06.006Z,98450.44
2023-12-09T10:54:32.870Z,98444.16
2023-12-09T10:57:00.275Z,98434.22
2023-12-09T10:59:30.603Z,98433.44
2023-12-09T11:01:58.767Z,98423.50
2023-12-09T11:04:26.425Z,98411.06
2023-12-09T11:06:57.099Z,98410.59
2023-12-09T11:09:24.667Z,98401.34
2023-12-09T11:11:52.412Z,98394.38
2023-12-09T11:14:20.172Z,98392.13
2023-12-09T11:16:47.664Z,98379.81
2023-12-09T11:19:18.816Z,98365.63
2023-12-09T11:21:47.174Z,98362.06
2023-12-09T11:24:19.509Z,98366.09
2023-12-09T11:26:47.531Z,98366.69
2023-12-09T11:29:16.519Z,98349.66
2023-12-09T11:31:48.161Z,98347.19
2023-12-09T11:34:16.776Z,98347.44
2023-12-09T11:36:44.739Z,98341.63
2023-12-09T11:39:30.037Z,98335.34
2023-12-09T11:41:57.079Z,98316.00
2023-12-09T11:44:24.736Z,98304.66
2023-12-09T11:46:51.515Z,98300.97
2023-12-09T11:49:18.756Z,98292.59
2023-12-09T11:51:45.609Z,98285.88
2023-12-09T11:54:12.694Z,98286.50
2023-12-09T11:56:40.781Z,98289.66
2023-12-09T11:59:08.244Z,98281.13
2023-12-09T12:01:38.029Z,98271.44
2023-12-09T12:04:08.151Z,98276.09
2023-12-09T12:06:36.945Z,98275.47
2023-12-09T12:09:04.919Z,98271.22
2023-12-09T12:11:33.758Z,98277.66
2023-12-09T12:14:01.672Z,98270.03
2023-12-09T12:16:28.889Z,98272.84
2023-12-09T12:18:56.602Z,98257.34
2023-12-09T12:21:23.711Z,98246.84
2023-12-09T12:23:53.961Z,98242.19
2023-12-09T12:26:21.262Z,98223.59
2023-12-09T12:28:53.314Z,98218.50
2023-12-09T12:31:20.267Z,98223.34
2023-12-09T12:33:47.274Z,98214.81
2023-12-09T12:36:14.213Z,98198.84
2023-12-09T12:38:41.270Z,98195.59
2023-12-09T12:41:08.117Z,98198.88
2023-12-09T12:43:35.001Z,98181.63
2023-12-09T12:46:01.900Z,98168.88
2023-12-09T12:48:29.358Z,98165.34
2023-12-09T12:50:56.638Z,98143.38
2023-12-09T12:53:28.340Z,98145.09
2023-12-09T12:55:56.485Z,98152.50
2023-12-09T12:58:24.084Z,98134.69
2023-12-09T13:00:53.850Z,98139.59
2023-12-09T13:03:21.029Z,98123.16
2023-12-09T13:05:48.741Z,98110.53
2023-12-09T13:08:15.723Z,98099.56
2023-12-09T13:10:42.648Z,98103.00
2023-12-09T13:13:09.444Z,98097.91
2023-12-09T13:15:36.554Z,98097.66
2023-12-09T13:18:03.594Z,98079.72
2023-12-09T13:20:30.627Z,98068.63
2023-12-09T13:22:58.044Z,98071.38
2023-12-09T13:25:24.933Z,98064.81
2023-12-09T13:27:51.800Z,98055.59
2023-12-09T13:30:18.652Z,98051.09
2023-12-09T13:32:47.161Z,98049.75
2023-12-09T13:35:16.233Z,98049.75
2023-12-09T13:37:44.534Z,98038.22
2023-12-09T13:40:13.318Z,98033.81
2023-12-09T13:42:40.529Z,98025.75
2023-12-09T13:45:08.571Z,98020.13
2023-12-09T13:47:35.984Z,98013.97
2023-12-09T13:50:02.887Z,98004.50
2023-12-09T13:52:32.284Z,97996.53
2023-12-09T13:55:02.752Z,98001.47
2023-12-09T13:57:30.200Z,98004.75
2023-12-09T13:59:57.177Z,97997.63
2023-12-09T14:02:24.181Z,97992.97
2023-12-09T14:04:51.563Z,97971.03
2023-12-09T14:07:18.968Z,97972.84
2023-12-09T14:09:46.150Z,97957.06
2023-12-09T14:12:13.566Z,97959.97
2023-12-09T14:14:40.396Z,97955.44
2023-12-09T14:17:08.992Z,97949.69
2023-12-09T14:19:35.924Z,97932.97
2023-12-09T14:22:02.805Z,97920.25
2023-12-09T14:24:29.642Z,97916.81
2023-12-09T14:26:56.752Z,97906.53
2023-12-09T14:29:23.602Z,97902.53
2023-12-09T14:31:50.490Z,97893.81
2023-12-09T14:34:17.549Z,97875.16
2023-12-09T14:36:44.473Z,97872.28
2023-12-09T14:39:12.000Z,97864.06
2023-12-09T14:41:41.188Z,97863.25
2023-12-09T14:44:09.219Z,97852.28
2023-12-09T14:46:36.505Z,97838.31
2023-12-09T14:49:05.054Z,97850.09
2023-12-09T14:51:40.879Z,97837.06
2023-12-09T14:54:13.428Z,97843.91
2023-12-09T14:56:41.217Z,97840.53
2023-12-09T14:59:08.502Z,97839.44
2023-12-09T15:01:35.332Z,97831.88
2023-12-09T15:04:04.641Z,97835.44
2023-12-09T15:06:31.702Z,97827.50
2023-12-09T15:08:58.618Z,97827.78
2023-12-09T15:11:26.074Z,97824.47
2023-12-09T15:13:53.041Z,97801.75
2023-12-09T15:16:20.178Z,97793.41
2023-12-09T15:18:47.891Z,97768.59
2023-12-09T15:21:15.078Z,97767.22
2023-12-09T15:23:42.020Z,97760.66
2023-12-09T15:26:08.821Z,97751.06
2023-12-09T15:28:36.047Z,97745.59
2023-12-09T15:31:03.863Z,97733.53
2023-12-09T15:33:30.808Z,97732.31
2023-12-09T15:35:57.662Z,97729.16
2023-12-09T15:38:24.674Z,97736.97
2023-12-09T15:40:51.541Z,97733.69
2023-12-09T15:43:18.797Z,97726.44
2023-12-09T15:45:45.974Z,97714.13
2023-12-09T15:48:13.554Z,97717.25
2023-12-09T15:50:40.767Z,97709.97
2023-12-09T15:53:07.561Z,97725.06
2023-12-09T15:55:34.500Z,97694.13
2023-12-09T15:58:01.212Z,97703.41
2023-12-09T16:00:28.142Z,97696.00
2023-12-09T16:02:56.986Z,97700.16
2023-12-09T16:05:25.100Z,97698.91
2023-12-09T16:07:52.071Z,97702.72
2023-12-09T16:10:19.722Z,97677.16
2023-12-09T16:12:47.408Z,97680.97
2023-12-09T16:15:14.800Z,97679.59
2023-12-09T16:17:42.722Z,97668.09
2023-12-09T16:20:11.784Z,97654.69
2023-12-09T16:22:39.200Z,97632.38
2023-12-09T16:25:06.582Z,97645.91
2023-12-09T16:27:35.428Z,97640.03
2023-12-09T16:30:03.761Z,97635.94
2023-12-09T16:32:30.939Z,97615.13
2023-12-09T16:34:57.902Z,97589.81
2023-12-09T16:37:25.817Z,97595.81
2023-12-09T16:39:52.887Z,97589.63
2023-12-09T16:42:19.723Z,97584.03
2023-12-09T16:44:46.616Z,97582.09
2023-12-09T16:47:13.602Z,97576.56
2023-12-09T16:49:40.493Z,97557.44
2023-12-09T16:52:07.314Z,97557.16
2023-12-09T16:54:34.125Z,97545.47
2023-12-09T16:57:00.982Z,97534.69
2023-12-09T16:59:28.061Z,97524.59
2023-12-09T17:01:54.973Z,97510.69
2023-12-09T17:04:21.967Z,97503.47
2023-12-09T17:06:54.410Z,97495.38
2023-12-09T17:09:24.387Z,97495.69
2023-12-09T17:11:53.008Z,97476.53
2023-12-09T17:14:20.413Z,97471.09
2023-12-09T17:16:47.247Z,97464.00
2023-12-09T17:19:14.131Z,97451.97
2023-12-09T17:21:40.992Z,97456.03
2023-12-09T17:24:07.941Z,97443.91
2023-12-09T17:26:36.111Z,97450.59
2023-12-09T17:29:03.129Z,97442.06
2023-12-09T17:31:30.206Z,97430.53
2023-12-09T17:33:57.443Z,97432.88
2023-12-09T17:36:27.307Z,97416.88
2023-12-09T17:38:54.981Z,97404.25
2023-12-09T17:41:22.445Z,97397.75
2023-12-09T17:43:50.066Z,97405.56
2023-12-09T17:46:17.739Z,97385.00
2023-12-09T17:48:45.040Z,97372.56
2023-12-09T17:51:12.190Z,97370.63
2023-12-09T17:53:39.046Z,97356.44
2023-12-09T17:56:06.566Z,97356.25
2023-12-09T17:58:33.921Z,97342.63
2023-12-09T18:01:01.005Z,97340.69
2023-12-09T18:03:27.939Z,97340.63
2023-12-09T18:05:54.973Z,97340.25
2023-12-09T18:08:21.819Z,97311.97
2023-12-09T18:10:48.616Z,97315.22
2023-12-09T18:13:15.416Z,97308.09
2023-12-09T18:15:45.154Z,97296.72
2023-12-09T18:18:12.683Z,97275.81
2023-12-09T18:20:39.476Z,97270.22
2023-12-09T18:23:06.191Z,97262.25
2023-12-09T18:25:33.227Z,97263.06
2023-12-09T18:28:00.003Z,97262.41
2023-12-09T18:30:27.186Z,97254.38
2023-12-09T18:32:54.244Z,97242.84
2023-12-09T18:35:21.300Z,97233.56
2023-12-09T18:37:48.705Z,97221.75
2023-12-09T18:40:15.474Z,97230.72
2023-12-09T18:42:42.244Z,97214.91
2023-12-09T18:45:09.801Z,97222.09
2023-12-09T18:47:37.211Z,97201.53
2023-12-09T18:50:05.012Z,97204.34
2023-12-09T18:52:33.002Z,97195.75
2023-12-09T18:55:00.154Z,97175.72
2023-12-09T18:57:27.293Z,97182.88
2023-12-09T18:59:54.092Z,97167.56
2023-12-09T19:02:21.331Z,97165.66
2023-12-09T19:04:50.727Z,97165.84
2023-12-09T19:07:19.567Z,97147.88
2023-12-09T19:09:47.099Z,97158.19
2023-12-09T19:12:14.493Z,97158.34
2023-12-09T19:14:41.353Z,97161.25
2023-12-09T19:17:08.464Z,97146.25
2023-12-09T19:19:35.541Z,97155.44
2023-12-09T19:22:04.639Z,97151.16
2023-12-09T19:24:31.599Z,97151.47
2023-12-09T19:26:58.512Z,97149.84
2023-12-09T19:29:25.561Z,97154.91
2023-12-09T19:31:52.993Z,97139.16
2023-12-09T19:34:20.426Z,97138.84
2023-12-09T19:36:47.633Z,97137.84
2023-12-09T19:39:16.890Z,97126.44
2023-12-09T19:41:44.178Z,97125.69
2023-12-09T19:44:11.054Z,97126.38
2023-12-09T19:46:41.547Z,97126.81
2023-12-09T19:49:08.344Z,97119.00
2023-12-09T19:51:35.375Z,97128.13
2023-12-09T19:54:02.447Z,97112.38
2023-12-09T19:56:31.551Z,97112.88
2023-12-09T19:58:58.280Z,97108.16
2023-12-09T20:01:25.177Z,97100.16
2023-12-09T20:03:52.205Z,97106.34
2023-12-09T20:06:19.194Z,97099.03
2023-12-09T20:08:46.452Z,97097.22
2023-12-09T20:11:13.943Z,97100.78
2023-12-09T20:13:41.171Z,97091.69
2023-12-09T20:16:08.916Z,97090.56
2023-12-09T20:18:35.948Z,97095.28
2023-12-09T20:21:02.936Z,97106.97
2023-12-09T20:23:29.840Z,97087.41
2023-12-09T20:25:56.542Z,97092.81
2023-12-09T20:28:23.340Z,97100.97
2023-12-09T20:30:51.426Z,97104.56
2023-12-09T20:33:18.580Z,97088.41
2023-12-09T20:35:45.514Z,97085.97
2023-12-09T20:38:13.503Z,97075.25
2023-12-09T20:40:40.395Z,97079.13
2023-12-09T20:43:07.511Z,97078.13
2023-12-09T20:45:34.546Z,97077.50
2023-12-09T20:48:02.281Z,97071.13
2023-12-09T20:50:29.068Z,97065.31
2023-12-09T20:52:56.629Z,97074.75
2023-12-09T20:55:23.671Z,97063.03
2023-12-09T20:57:50.796Z,97076.38
2023-12-09T21:00:17.970Z,97076.53
2023-12-09T21:02:45.044Z,97076.50
2023-12-09T21:05:12.659Z,97071.44
2023-12-09T21:07:39.562Z,97079.91
2023-12-09T21:10:06.860Z,97072.09
2023-12-09T21:12:34.184Z,97073.06
2023-12-09T21:15:02.230Z,97072.56
2023-12-09T21:17:29.095Z,97084.13
2023-12-09T21:19:55.997Z,97084.47
2023-12-09T21:22:22.729Z,97081.50
2023-12-09T21:24:49.773Z,97074.69
2023-12-09T21:27:16.673Z,97085.06
2023-12-09T21:29:43.575Z,97094.78
2023-12-09T21:32:10.870Z,97100.69
2023-12-09T21:34:38.376Z,97100.34
2023-12-09T21:37:05.376Z,97099.19
2023-12-09T21:39:32.647Z,97094.44
2023-12-09T21:41:59.552Z,97091.91
2023-12-09T21:44:26.698Z,97100.69
2023-12-09T21:46:53.644Z,97099.06
2023-12-09T21:49:20.753Z,97097.41
2023-12-09T21:51:47.873Z,97110.25
2023-12-09T21:54:16.171Z,97103.44
2023-12-09T21:56:43.006Z,97113.81
2023-12-09T21:59:09.848Z,97117.91
2023-12-09T22:01:36.939Z,97107.66
2023-12-09T22:04:04.426Z,97105.19
2023-12-09T22:06:31.306Z,97106.31
2023-12-09T22:08:58.933Z,97104.53
2023-12-09T22:11:25.885Z,97104.31
2023-12-09T22:13:52.703Z,97102.34
2023-12-09T22:16:21.017Z,97112.00
2023-12-09T22:18:49.460Z,97108.75
2023-12-09T22:21:16.686Z,97119.75
2023-12-09T22:23:43.835Z,97123.00
2023-12-09T22:26:10.604Z,97123.50
2023-12-09T22:28:40.531Z,97122.34
2023-12-09T22:31:09.783Z,97131.78
2023-12-09T22:33:38.330Z,97134.38
2023-12-09T22:36:05.823Z,97147.06
2023-12-09T22:38:32.555Z,97154.19
2023-12-09T22:40:59.656Z,97141.84
2023-12-09T22:43:26.705Z,97142.06
2023-12-09T22:45:53.745Z,97138.72
2023-12-09T22:48:20.792Z,97154.03
2023-12-09T22:50:47.617Z,97158.19
2023-12-09T22:53:14.435Z,97162.41
2023-12-09T22:55:41.636Z,97160.50
2023-12-09T22:58:08.422Z,97161.97
2023-12-09T23:00:38.441Z,97156.94
2023-12-09T23:03:06.699Z,97164.81
2023-12-09T23:05:34.035Z,97176.81
2023-12-09T23:08:06.497Z,97170.31
2023-12-09T23:10:33.363Z,97161.03
2023-12-09T23:13:00.253Z,97174.41
2023-12-09T23:15:27.183Z,97183.91
2023-12-09T23:17:55.707Z,97181.44
2023-12-09T23:20:22.551Z,97186.97
2023-12-09T23:22:49.295Z,97189.41
2023-12-09T23:25:16.125Z,97189.50
2023-12-09T23:27:43.418Z,97191.19
2023-12-09T23:30:11.442Z,97187.25
2023-12-09T23:32:38.705Z,97188.28
2023-12-09T23:35:06.190Z,97202.97
2023-12-09T23:37:32.900Z,97214.13
2023-12-09T23:39:59.633Z,97212.66
2023-12-09T23:42:26.657Z,97223.28
2023-12-09T23:44:53.742Z,97213.97
2023-12-09T23:47:20.504Z,97221.16
2023-12-09T23:49:47.596Z,97222.16
2023-12-09T23:52:14.948Z,97231.16
2023-12-09T23:54:41.980Z,97229.72
2023-12-09T23:57:09.334Z,97246.66
2023-12-09T23:59:36.132Z,97248.94
